Long Island, KS

6:43 PM CST on November 20, 2019 (GMT -0600)
Alma - 6 SW - Johnson | | Change Station

Elev 2103 ft 40.02 °N, 99.43 °W | Updated 45 minutes ago

Rain
Rain
52.7 °F
Feels Like 52.7 °F
N
6
Wind Variable Wind from NNW
Gusts 10.0 mph

Today
High -- | Low -- °F
--% Chance of Precip.
Yesterday
High -- | Low -- °F
Precip. -- in
Pressure 29.69 in
Visibility 7.0 miles
Clouds Scattered Clouds 3700 ft
Mostly Cloudy 4400 ft
Overcast 5500 ft
Dew Point 41 °F
Humidity 65%
Rainfall 0.01 in
Snow Depth Not available.
7:28 AM 5:18 PM
Last Quarter, 37% visible
METAR KHDE 210035Z AUTO 35017G24KT 7SM RA SCT037 BKN044 OVC055 07/05 A2969 RMK AO2 P0004 T00730045
Pressure 29.69 in
Visibility 7.0 miles
Clouds Scattered Clouds 3700 ft
Mostly Cloudy 4400 ft
Overcast 5500 ft
Dew Point 41 °F
Humidity 65%
Rainfall 0.01 in
Snow Depth Not available.
7:28 AM 5:18 PM
Last Quarter, 37% visible
METAR KHDE 210035Z AUTO 35017G24KT 7SM RA SCT037 BKN044 OVC055 07/05 A2969 RMK AO2 P0004 T00730045

Get Severe Weather Alerts

Thanks for signing up!

Be on the lookout for a verification email in your inbox.

You'll start receiving the daily forecast at 6 AM.

×

10-Day Weather Forecast

Almanac

Astronomy

Nov. 20, 2019 Rise Set
Actual Time
Civil Twilight
Nautical Twilight
Astronomical Twilight
Moon
Length of Visible Light
Length of Day
Tomorrow will be .
, % of the Moon is Illuminated

Today's Extremes

State Highs State Lows

Community

WunderPhotos

Category 6

Welcome to Category 6. This is the collective home for Weather Underground's featured writeups by Dr. Jeff Masters (right), Bob Henson (left), Chris Burt, and other regular contributors.

Nearby

Air Quality

  Air Quality AQ Index Pollutant
Not available.

Snow Depth

Station Depth Elevation

Earthquake Activity

City Distance Mag. Time & Date
Minimum magnitude displayed is 2.5.

Coastal Water Temperatures

Place Temperature

Stations

Nearby Weather Stations

Station Location Temp. Windchill Dew Point Humidity Wind Precip. Elev Updated Type
                   

Watches & Warnings

There are currently no watches in effect.